International Virtual Aviation Organisation

Russian Federation and Kazakhstan MCD

 

Карточка аэропорта UHMM

Внимание!
Информация на этой странице в стадии наполнения.
Если вы не увидели какой-то информации, или заметили неточность - пожалуйста сообщите нам!
Спасибо!
Команда RU-STAFF
Название аэропортаСокол
Название аэропорта (англ.)Sokol
Превышение574 ft. (175 m.)
Координаты59°54.666', 150°43.26'
Высота перехода2150m
Эшелон переходаQFE>=733mm:FL090; QFE<733:FL100
Коды ответчика6540-6577
Зона ОрВДМагадан РПИ (UHMM)
Данные METARUHMM 302100Z 10007MPS 4000 -SHSN BLSN SCT015CB BKN036 M01/M03 Q1019 R10/450255 RMK MT OBSC QFE749 R28/11004MPS
Проноз погоды (TAF)UHMM 301954Z 3021/0103 10006G11MPS 4000 -SHSN BLSN BKN013 OVC023CB TEMPO 3021/3106 1000 SHSN BLSN VV005 FM310600 11006G11MPS 2000 SHSN BLSN VV007 TEMPO 3106/3124 0500 +SHSN BLSN VV003 FM010000 10003G08MPS 5000 -SHSN BKN015CB
NOTAMshow/hide NOTAM
AWOS   TABLE

Информация о ВПП


Диспетчерские позиции

Позывной Наименование органа УВД Частота
UHMM_APPМагадан-Подход119.3
UHMM_TWRМагадан-Вышка120.8



Спутниковое изображение